Time;durP1;ratioP1;P1;durP2;ratioP2;P2;SDS_P1;SDS_P2;PMS_P1;PMS_P2;Temp;Humidity;BMP_temperature;BMP_pressure;BME280_temperature;BME280_humidity;BME280_pressure;Samples;Min_cycle;Max_cycle;Signal;HPM_P1;HPM_P2
2021/12/03 00:00:49;;;;;;;3.20;2.70;;;;;;;0.77;94.96;96061.63;5092286;28;20410;-67
2021/12/03 00:03:14;;;;;;;3.20;2.90;;;;;;;0.77;94.82;96061.63;5092156;28;20866;-67
2021/12/03 00:05:41;;;;;;;3.33;2.90;;;;;;;0.68;95.52;96064.47;5086546;28;20387;-67
2021/12/03 00:08:07;;;;;;;3.70;2.97;;;;;;;0.70;95.67;96063.31;5092451;28;20742;-67
2021/12/03 00:10:34;;;;;;;3.40;3.10;;;;;;;0.56;95.31;96076.25;5092625;28;20406;-67
2021/12/03 00:13:00;;;;;;;3.83;2.97;;;;;;;0.52;95.08;96077.59;5092350;28;20409;-67
2021/12/03 00:15:27;;;;;;;4.80;3.20;;;;;;;0.47;96.11;96087.66;5091224;28;20390;-68
2021/12/03 00:17:53;;;;;;;5.60;3.20;;;;;;;0.51;96.41;96089.69;5092166;28;20418;-67
2021/12/03 00:20:22;;;;;;;4.22;3.30;;;;;;;0.52;96.04;96100.78;5076388;28;20480;-67
2021/12/03 00:22:49;;;;;;;6.60;3.80;;;;;;;0.48;96.48;96100.34;5091137;28;20408;-67
2021/12/03 00:25:15;;;;;;;3.30;3.00;;;;;;;0.42;96.41;96111.38;5092487;28;20405;-67
2021/12/03 00:27:41;;;;;;;5.00;3.42;;;;;;;0.31;97.86;96117.81;5092078;28;20401;-67
2021/12/03 00:30:10;;;;;;;4.75;3.40;;;;;;;0.31;97.84;96124.72;5091938;28;20417;-68
2021/12/03 00:32:36;;;;;;;4.33;3.50;;;;;;;0.35;97.11;96124.19;5090386;28;20437;-68
2021/12/03 00:35:03;;;;;;;4.67;3.60;;;;;;;0.36;96.58;96128.38;5090629;28;20856;-67
2021/12/03 00:37:28;;;;;;;4.38;3.50;;;;;;;0.33;97.23;96136.47;5092159;28;20399;-67
2021/12/03 00:39:54;;;;;;;4.00;3.60;;;;;;;0.36;96.89;96130.94;5091460;28;20390;-67
2021/12/03 00:42:19;;;;;;;4.18;3.45;;;;;;;0.31;96.60;96133.25;5091787;28;20382;-67
2021/12/03 00:44:51;;;;;;;3.90;3.50;;;;;;;0.36;96.75;96133.53;5091856;28;20465;-68
2021/12/03 00:47:17;;;;;;;4.30;3.33;;;;;;;0.22;97.13;96136.91;5092009;28;20398;-67
2021/12/03 00:49:43;;;;;;;6.13;4.05;;;;;;;0.37;96.82;96149.78;5091966;28;20463;-68
2021/12/03 00:52:08;;;;;;;3.80;3.40;;;;;;;0.38;95.93;96154.78;5091673;28;20436;-68
2021/12/03 00:54:34;;;;;;;4.25;3.65;;;;;;;0.46;96.96;96158.22;5091907;28;20382;-68
2021/12/03 00:57:00;;;;;;;4.88;3.80;;;;;;;0.33;96.60;96162.25;5091643;28;20904;-68
2021/12/03 00:59:26;;;;;;;5.63;3.60;;;;;;;0.30;96.75;96154.06;5090162;28;20418;-68
2021/12/03 01:01:51;;;;;;;4.47;4.00;;;;;;;0.24;96.51;96162.50;5091087;28;20386;-68
2021/12/03 01:04:17;;;;;;;5.73;4.27;;;;;;;0.19;96.86;96164.78;5091486;28;20535;-67
2021/12/03 01:06:42;;;;;;;4.90;4.10;;;;;;;0.12;97.17;96174.19;5090286;28;20424;-67
2021/12/03 01:09:08;;;;;;;4.23;3.83;;;;;;;0.13;97.40;96178.38;5091691;28;20406;-68
2021/12/03 01:11:33;;;;;;;10.90;4.30;;;;;;;0.28;96.38;96182.56;5091597;28;20393;-68
2021/12/03 01:14:00;;;;;;;4.37;3.97;;;;;;;0.24;96.67;96185.69;5091024;28;20400;-69
2021/12/03 01:16:27;;;;;;;5.72;3.70;;;;;;;0.22;97.24;96190.22;5092096;28;20424;-68
2021/12/03 01:18:53;;;;;;;5.80;3.95;;;;;;;0.10;96.35;96191.63;5091819;28;20454;-68
2021/12/03 01:21:19;;;;;;;5.38;4.28;;;;;;;0.21;97.04;96201.50;5091724;28;20381;-68
2021/12/03 01:23:45;;;;;;;4.43;4.00;;;;;;;0.39;96.76;96209.69;5091440;28;20872;-68
2021/12/03 01:26:10;;;;;;;6.03;4.50;;;;;;;0.40;96.28;96214.66;5091544;28;21040;-68
2021/12/03 01:28:36;;;;;;;5.60;4.13;;;;;;;0.35;96.72;96204.09;5091352;28;20473;-68
2021/12/03 01:31:02;;;;;;;6.10;4.60;;;;;;;0.24;97.19;96206.28;5091155;28;20479;-68
2021/12/03 01:33:27;;;;;;;5.20;4.35;;;;;;;0.22;98.06;96209.06;5091292;28;20420;-68
2021/12/03 01:35:52;;;;;;;5.10;4.30;;;;;;;0.33;97.69;96213.78;5091659;28;20885;-68
2021/12/03 01:38:18;;;;;;;4.93;4.43;;;;;;;0.35;97.93;96209.22;5091340;28;20397;-68
2021/12/03 01:40:44;;;;;;;6.10;4.40;;;;;;;0.29;98.41;96217.66;5090970;28;20394;-68
2021/12/03 01:43:14;;;;;;;7.13;4.53;;;;;;;0.34;97.91;96219.72;5089869;28;20390;-68
2021/12/03 01:45:40;;;;;;;5.13;4.50;;;;;;;0.45;97.95;96224.44;5091229;28;20946;-68
2021/12/03 01:48:07;;;;;;;5.00;4.50;;;;;;;0.52;96.81;96221.94;5091135;28;20471;-68
2021/12/03 01:50:36;;;;;;;7.25;4.53;;;;;;;0.54;96.67;96215.66;5091171;28;20475;-68
2021/12/03 01:53:04;;;;;;;6.00;4.80;;;;;;;0.40;97.62;96214.66;5091873;28;20416;-68
2021/12/03 01:55:30;;;;;;;5.20;4.57;;;;;;;0.46;97.41;96220.06;5091467;28;20378;-68
2021/12/03 01:57:55;;;;;;;5.03;4.40;;;;;;;0.38;98.16;96221.78;5090737;28;20443;-68
2021/12/03 02:00:25;;;;;;;5.87;4.50;;;;;;;0.34;98.46;96219.72;5090533;28;20497;-68
2021/12/03 02:02:51;;;;;;;5.63;4.68;;;;;;;0.24;98.12;96216.59;5089480;28;20398;-68
2021/12/03 02:05:16;;;;;;;5.32;4.57;;;;;;;0.17;97.97;96223.44;5091025;28;20412;-68
2021/12/03 02:07:44;;;;;;;7.18;4.88;;;;;;;0.16;98.80;96227.00;5093139;28;20407;-68
2021/12/03 02:10:10;;;;;;;6.00;4.93;;;;;;;0.24;98.77;96216.59;5095080;28;20844;-68
2021/12/03 02:12:35;;;;;;;5.95;4.88;;;;;;;0.21;98.38;96217.78;5094108;28;20378;-68
2021/12/03 02:15:02;;;;;;;7.03;4.77;;;;;;;0.04;98.28;96221.47;5094484;28;20381;-68
2021/12/03 02:17:28;;;;;;;7.40;4.57;;;;;;;0.00;98.52;96226.16;5094396;28;20397;-68
2021/12/03 02:19:53;;;;;;;5.43;4.83;;;;;;;-0.07;99.16;96216.75;5093381;28;20417;-68
2021/12/03 02:22:19;;;;;;;6.37;4.53;;;;;;;0.00;98.93;96227.94;5094811;28;20711;-69
2021/12/03 02:24:44;;;;;;;6.83;4.93;;;;;;;0.14;97.87;96232.31;5093342;28;20390;-68
2021/12/03 02:27:10;;;;;;;6.50;5.00;;;;;;;-0.02;98.33;96237.63;5094319;28;20439;-68
2021/12/03 02:29:35;;;;;;;7.30;5.10;;;;;;;-0.04;98.75;96236.97;5093789;28;20766;-68
2021/12/03 02:32:01;;;;;;;6.53;4.93;;;;;;;-0.06;98.85;96242.28;5093988;28;20394;-68
2021/12/03 02:34:27;;;;;;;7.28;4.85;;;;;;;-0.05;99.43;96241.31;5094365;28;20458;-68
2021/12/03 02:36:52;;;;;;;6.53;5.40;;;;;;;-0.06;99.44;96244.88;5094309;28;20810;-68
2021/12/03 02:39:18;;;;;;;6.87;5.17;;;;;;;-0.12;99.36;96244.78;5093772;28;20473;-68
2021/12/03 02:41:43;;;;;;;7.27;5.20;;;;;;;-0.33;99.41;96245.41;5094360;28;20723;-68
2021/12/03 02:44:09;;;;;;;8.33;5.37;;;;;;;-0.22;99.65;96255.31;5094239;28;20565;-68
2021/12/03 02:46:34;;;;;;;7.25;5.57;;;;;;;-0.27;100.00;96262.75;5092883;28;20454;-68
2021/12/03 02:49:00;;;;;;;5.70;4.83;;;;;;;-0.18;99.86;96266.09;5092862;28;20390;-68
2021/12/03 02:51:25;;;;;;;7.27;5.70;;;;;;;-0.21;99.82;96267.22;5093870;28;20749;-68
2021/12/03 02:53:51;;;;;;;7.30;5.50;;;;;;;-0.22;99.24;96269.94;5093899;28;20797;-68
2021/12/03 02:56:16;;;;;;;5.80;5.20;;;;;;;-0.11;98.99;96262.63;5094126;28;20417;-68
2021/12/03 02:58:41;;;;;;;7.73;5.40;;;;;;;-0.09;98.44;96270.19;5093728;28;20432;-68
2021/12/03 03:01:09;;;;;;;9.73;5.43;;;;;;;-0.08;97.67;96267.44;5093304;28;20402;-69
2021/12/03 03:03:35;;;;;;;8.13;5.25;;;;;;;-0.21;98.38;96272.38;5093604;28;20473;-68
2021/12/03 03:06:03;;;;;;;6.50;5.00;;;;;;;-0.23;98.38;96274.31;5093691;28;20385;-68
2021/12/03 03:08:30;;;;;;;5.60;5.10;;;;;;;-0.17;98.06;96278.75;5093797;28;20394;-68
2021/12/03 03:10:57;;;;;;;8.07;5.32;;;;;;;-0.10;97.94;96278.88;5093629;28;20442;-68
2021/12/03 03:13:23;;;;;;;5.85;5.00;;;;;;;-0.17;97.66;96278.00;5093670;28;20439;-68
2021/12/03 03:15:48;;;;;;;6.53;5.35;;;;;;;-0.17;97.56;96275.41;5093475;28;20493;-68
2021/12/03 03:18:20;;;;;;;6.17;5.30;;;;;;;-0.27;98.21;96282.53;5092504;28;20477;-68
2021/12/03 03:20:46;;;;;;;5.75;5.05;;;;;;;-0.19;97.60;96282.50;5093312;28;20443;-69
2021/12/03 03:23:13;;;;;;;7.15;5.63;;;;;;;-0.14;97.73;96290.50;5091252;28;20398;-69
2021/12/03 03:25:43;;;;;;;7.82;5.72;;;;;;;-0.03;97.16;96279.78;5093570;28;20868;-68
2021/12/03 03:28:12;;;;;;;7.55;5.60;;;;;;;-0.25;97.40;96286.56;5108882;28;20929;-68
2021/12/03 03:30:41;;;;;;;7.50;5.60;;;;;;;-0.17;97.19;96281.34;5093463;28;20409;-68
2021/12/03 03:33:07;;;;;;;6.82;5.45;;;;;;;-0.13;97.08;96287.75;5092595;28;20394;-68
2021/12/03 03:35:33;;;;;;;7.57;5.68;;;;;;;-0.13;96.80;96290.34;5093227;28;20382;-68
2021/12/03 03:38:00;;;;;;;6.20;5.30;;;;;;;-0.14;96.70;96293.09;5093215;28;20915;-68
2021/12/03 03:40:26;;;;;;;6.68;5.50;;;;;;;-0.11;96.97;96298.69;5092943;28;20862;-68
2021/12/03 03:42:52;;;;;;;7.28;5.78;;;;;;;-0.07;96.80;96299.97;5092743;28;20402;-68
2021/12/03 03:45:21;;;;;;;7.50;5.32;;;;;;;-0.13;96.72;96310.13;5092798;28;20440;-68
2021/12/03 03:47:47;;;;;;;6.40;5.38;;;;;;;0.14;96.70;96317.34;5092880;28;20862;-68
2021/12/03 03:50:14;;;;;;;6.43;5.40;;;;;;;0.12;95.73;96313.31;5093180;28;20413;-68
2021/12/03 03:52:40;;;;;;;6.75;5.50;;;;;;;0.10;95.94;96318.66;5093012;28;20746;-67
2021/12/03 03:55:08;;;;;;;6.13;4.93;;;;;;;0.08;96.55;96322.38;5092881;28;20397;-68
2021/12/03 03:57:34;;;;;;;6.07;5.13;;;;;;;0.26;95.03;96315.16;5092744;28;20424;-68
2021/12/03 04:00:00;;;;;;;6.60;5.53;;;;;;;0.28;96.00;96313.22;5092489;28;20421;-68
2021/12/03 04:02:26;;;;;;;7.50;5.20;;;;;;;0.32;96.17;96317.03;5091992;28;20393;-68
2021/12/03 04:04:51;;;;;;;7.45;5.47;;;;;;;0.27;96.72;96319.34;5092871;28;20919;-68
2021/12/03 04:07:17;;;;;;;5.95;5.30;;;;;;;0.39;96.20;96318.72;5092553;28;20773;-68
2021/12/03 04:09:42;;;;;;;5.88;5.28;;;;;;;0.38;96.21;96324.88;5092611;28;20762;-68
2021/12/03 04:12:08;;;;;;;5.77;5.20;;;;;;;0.47;94.82;96330.75;5091081;28;20440;-68
2021/12/03 04:14:33;;;;;;;5.97;5.37;;;;;;;0.36;95.90;96334.56;5092192;28;20394;-68
2021/12/03 04:16:59;;;;;;;7.23;6.10;;;;;;;0.39;95.94;96334.19;5092732;28;20477;-68
2021/12/03 04:19:24;;;;;;;6.60;5.90;;;;;;;0.46;95.44;96346.38;5092458;28;20885;-68
2021/12/03 04:21:49;;;;;;;7.63;5.93;;;;;;;0.54;95.37;96348.91;5092108;28;20473;-68
2021/12/03 04:24:15;;;;;;;6.70;5.90;;;;;;;0.54;95.38;96349.72;5092000;28;20703;-68
2021/12/03 04:26:40;;;;;;;6.45;5.80;;;;;;;0.83;93.35;96354.91;5091783;28;20461;-68
2021/12/03 04:29:06;;;;;;;7.47;5.90;;;;;;;0.83;91.92;96349.75;5091873;28;21027;-68
2021/12/03 04:31:31;;;;;;;6.97;6.27;;;;;;;0.84;91.88;96356.50;5091821;28;20754;-68
2021/12/03 04:33:57;;;;;;;8.05;5.95;;;;;;;0.62;92.44;96356.56;5091935;28;20394;-68
2021/12/03 04:36:23;;;;;;;6.25;5.65;;;;;;;0.61;92.67;96358.34;5092444;28;20451;-68
2021/12/03 04:38:48;;;;;;;7.40;5.80;;;;;;;0.67;93.58;96360.19;5092369;28;20393;-69
2021/12/03 04:41:14;;;;;;;6.30;5.53;;;;;;;0.72;92.27;96363.09;5091623;28;20394;-68
2021/12/03 04:43:39;;;;;;;7.00;5.77;;;;;;;0.88;90.83;96359.53;5092319;28;20389;-68
2021/12/03 04:46:05;;;;;;;6.90;6.00;;;;;;;0.87;90.79;96365.69;5090712;28;20866;-68
2021/12/03 04:48:31;;;;;;;6.87;5.83;;;;;;;0.83;91.40;96365.25;5092202;28;20382;-68
2021/12/03 04:50:57;;;;;;;7.30;6.00;;;;;;;0.65;92.73;96369.91;5092209;28;20811;-68
2021/12/03 04:53:22;;;;;;;6.50;5.90;;;;;;;0.69;91.97;96375.50;5091796;28;20404;-68
2021/12/03 04:55:49;;;;;;;6.57;5.85;;;;;;;0.80;92.75;96378.47;5074279;28;20419;-68
2021/12/03 04:58:15;;;;;;;7.07;6.30;;;;;;;0.82;92.35;96380.88;5091700;28;20386;-68
2021/12/03 05:00:46;;;;;;;6.82;6.00;;;;;;;0.72;92.41;96388.88;5091211;28;20406;-68
2021/12/03 05:03:12;;;;;;;6.80;5.80;;;;;;;0.76;92.18;96395.28;5096714;28;20396;-68
2021/12/03 05:05:42;;;;;;;6.73;5.97;;;;;;;0.77;92.20;96398.66;5085390;28;20742;-68
2021/12/03 05:08:07;;;;;;;6.40;5.80;;;;;;;0.86;91.84;96402.75;5091696;28;20481;-68
2021/12/03 05:10:36;;;;;;;6.43;5.72;;;;;;;0.86;91.53;96396.78;5091986;28;20506;-68
2021/12/03 05:13:32;;;;;;;7.13;6.10;;;;;;;0.99;91.26;96392.66;5091873;28;20390;-68
2021/12/03 05:15:58;;;;;;;6.50;5.80;;;;;;;1.09;90.70;96394.97;5089606;28;20878;-68
2021/12/03 05:18:25;;;;;;;7.13;6.43;;;;;;;0.93;90.14;96395.13;5091703;28;20777;-68
2021/12/03 05:20:52;;;;;;;6.70;6.00;;;;;;;0.83;91.02;96392.81;5092167;28;20508;-68
2021/12/03 05:23:19;;;;;;;6.78;6.00;;;;;;;0.73;91.43;96397.38;5091723;28;20389;-68
2021/12/03 05:25:46;;;;;;;6.78;6.05;;;;;;;0.91;90.91;96403.03;5091195;28;20390;-68
2021/12/03 05:28:11;;;;;;;6.90;6.20;;;;;;;0.93;90.35;96408.03;5091374;28;20385;-68
2021/12/03 05:30:37;;;;;;;7.30;6.43;;;;;;;0.95;90.24;96409.44;5106786;28;20440;-68
2021/12/03 05:33:04;;;;;;;6.78;6.10;;;;;;;0.95;89.71;96408.66;5091365;28;20408;-68
2021/12/03 05:35:29;;;;;;;7.10;6.40;;;;;;;0.89;89.52;96412.75;5091533;28;20512;-68
2021/12/03 05:37:55;;;;;;;6.88;5.97;;;;;;;0.93;89.19;96419.16;5090963;28;20915;-68
2021/12/03 05:40:21;;;;;;;6.78;5.93;;;;;;;1.00;88.43;96419.25;5091368;28;20524;-68
2021/12/03 05:42:47;;;;;;;6.70;6.00;;;;;;;0.91;88.52;96415.94;5093372;28;20452;-68
2021/12/03 05:45:20;;;;;;;8.43;5.43;;;;;;;0.98;87.09;96421.19;5095411;28;20432;-68
2021/12/03 05:47:46;;;;;;;7.05;5.72;;;;;;;0.78;88.27;96429.41;5110488;28;20406;-68
2021/12/03 05:50:13;;;;;;;6.65;5.80;;;;;;;0.76;88.96;96421.06;5094871;28;20485;-68
2021/12/03 05:52:39;;;;;;;6.75;5.80;;;;;;;0.97;88.28;96424.75;5094776;28;20393;-68
2021/12/03 05:55:06;;;;;;;6.53;5.93;;;;;;;0.72;89.18;96426.75;5095023;28;20873;-68
2021/12/03 05:57:32;;;;;;;7.25;6.13;;;;;;;0.83;89.37;96441.81;5094932;28;20378;-68
2021/12/03 05:59:57;;;;;;;6.40;5.80;;;;;;;1.05;89.32;96437.59;5094842;28;20501;-68
2021/12/03 06:02:23;;;;;;;7.78;6.10;;;;;;;0.93;88.77;96438.97;5094287;28;20402;-68
2021/12/03 06:04:49;;;;;;;7.17;6.27;;;;;;;0.95;89.28;96437.03;5095296;28;20405;-68
2021/12/03 06:07:15;;;;;;;6.72;6.07;;;;;;;1.03;89.78;96447.28;5094428;28;20443;-67
2021/12/03 06:09:42;;;;;;;7.80;6.53;;;;;;;0.75;90.49;96449.59;5094485;28;20801;-68
2021/12/03 06:12:08;;;;;;;6.97;6.30;;;;;;;0.77;90.90;96451.06;5094929;28;20535;-67
2021/12/03 06:14:34;;;;;;;7.00;6.30;;;;;;;0.76;90.13;96464.91;5094688;28;20400;-68
2021/12/03 06:16:59;;;;;;;7.35;5.90;;;;;;;0.68;90.66;96462.38;5094402;28;20382;-68
2021/12/03 06:19:25;;;;;;;6.43;5.73;;;;;;;0.81;89.97;96464.38;5094513;28;20390;-67
2021/12/03 06:21:51;;;;;;;6.97;6.27;;;;;;;0.86;89.04;96462.09;5094699;28;20382;-68
2021/12/03 06:24:16;;;;;;;8.60;6.40;;;;;;;1.00;88.52;96466.50;5093741;28;20402;-69
2021/12/03 06:26:42;;;;;;;7.10;6.40;;;;;;;0.98;88.67;96463.28;5094838;28;20457;-68
2021/12/03 06:29:07;;;;;;;7.30;6.22;;;;;;;0.87;87.82;96462.91;5093332;28;20399;-68
2021/12/03 06:31:33;;;;;;;6.50;5.88;;;;;;;1.05;87.00;96469.34;5094804;28;20398;-68
2021/12/03 06:33:59;;;;;;;6.82;5.78;;;;;;;0.97;88.14;96474.56;5094434;28;20776;-68
2021/12/03 06:36:25;;;;;;;7.97;6.60;;;;;;;0.92;88.46;96476.88;5094486;28;20426;-68
2021/12/03 06:38:51;;;;;;;6.57;5.97;;;;;;;0.85;88.79;96478.53;5093706;28;20490;-68
2021/12/03 06:41:16;;;;;;;6.50;5.90;;;;;;;1.16;88.31;96486.19;5094041;28;20874;-68
2021/12/03 06:43:41;;;;;;;6.60;5.80;;;;;;;1.08;88.59;96481.88;5094453;28;20393;-68
2021/12/03 06:46:07;;;;;;;6.90;6.20;;;;;;;1.05;88.09;96489.19;5092142;28;20398;-68
2021/12/03 06:48:32;;;;;;;6.93;6.13;;;;;;;0.90;88.18;96485.75;5093748;28;20395;-68
2021/12/03 06:50:58;;;;;;;7.25;6.20;;;;;;;0.96;88.70;96491.03;5094166;28;20421;-68
2021/12/03 06:53:27;;;;;;;6.80;6.10;;;;;;;0.92;88.00;96487.19;5093446;28;20394;-68
2021/12/03 06:55:57;;;;;;;7.03;6.32;;;;;;;0.65;88.01;96488.53;5092759;28;20398;-67
2021/12/03 06:58:23;;;;;;;6.73;5.83;;;;;;;0.68;87.95;96492.53;5083136;28;20480;-68
2021/12/03 07:00:52;;;;;;;7.57;6.57;;;;;;;0.82;87.70;96489.22;5090008;28;20533;-68
2021/12/03 07:03:18;;;;;;;7.30;6.03;;;;;;;0.80;86.46;96491.97;5093837;28;20758;-68
2021/12/03 07:05:43;;;;;;;6.60;5.90;;;;;;;0.58;88.04;96497.13;5093552;28;20401;-68
2021/12/03 07:08:09;;;;;;;6.93;5.77;;;;;;;0.56;88.13;96501.66;5093679;28;20514;-68
2021/12/03 07:10:35;;;;;;;6.57;5.87;;;;;;;0.49;88.04;96501.53;5093883;28;20864;-67
2021/12/03 07:13:00;;;;;;;7.40;6.10;;;;;;;0.41;88.28;96519.59;5093629;28;20400;-67
2021/12/03 07:15:26;;;;;;;8.20;6.47;;;;;;;0.45;85.98;96520.09;5093236;28;20900;-67
2021/12/03 07:17:52;;;;;;;7.53;6.13;;;;;;;0.55;87.49;96526.63;5083668;28;20401;-68
2021/12/03 07:20:21;;;;;;;7.00;6.30;;;;;;;0.57;86.04;96522.09;5093275;28;20397;-68
2021/12/03 07:22:46;;;;;;;6.30;5.70;;;;;;;0.48;87.22;96527.47;5093015;28;20389;-69
2021/12/03 07:25:12;;;;;;;6.90;6.10;;;;;;;0.11;88.05;96528.97;5093535;28;20397;-64
2021/12/03 07:27:38;;;;;;;6.83;6.13;;;;;;;-0.22;89.58;96532.59;5093496;28;20388;-64
2021/12/03 07:30:05;;;;;;;7.10;6.40;;;;;;;0.03;88.28;96530.75;5092751;28;20463;-68
2021/12/03 07:32:31;;;;;;;6.30;5.65;;;;;;;0.30;88.32;96530.31;5092692;28;20404;-68
2021/12/03 07:34:57;;;;;;;6.78;6.00;;;;;;;0.19;87.62;96528.91;5092892;28;20432;-69
2021/12/03 07:37:23;;;;;;;7.57;6.78;;;;;;;0.31;88.30;96539.66;5092633;28;20398;-68
2021/12/03 07:39:48;;;;;;;7.53;6.18;;;;;;;0.44;87.89;96534.75;5093074;28;20412;-68
2021/12/03 07:42:14;;;;;;;7.57;6.50;;;;;;;0.71;86.77;96533.47;5092583;28;20393;-68
2021/12/03 07:44:39;;;;;;;8.13;6.40;;;;;;;0.90;86.04;96540.72;5092824;28;20382;-68
2021/12/03 07:47:05;;;;;;;7.22;5.88;;;;;;;1.01;85.56;96547.25;5092961;28;20800;-68
2021/12/03 07:49:30;;;;;;;6.97;6.27;;;;;;;0.85;86.02;96543.03;5092477;28;20406;-68
2021/12/03 07:51:56;;;;;;;7.17;6.47;;;;;;;0.83;86.82;96548.38;5075850;28;20522;-69
2021/12/03 07:54:22;;;;;;;6.97;6.03;;;;;;;0.88;85.89;96547.84;5092672;28;20456;-69
2021/12/03 07:56:47;;;;;;;7.75;6.25;;;;;;;1.06;85.02;96542.41;5092268;28;20853;-69
2021/12/03 07:59:13;;;;;;;7.20;6.40;;;;;;;1.30;84.61;96552.53;5080458;28;20419;-69
2021/12/03 08:01:41;;;;;;;7.00;6.30;;;;;;;1.14;84.28;96557.81;5061356;28;20490;-69
2021/12/03 08:04:07;;;;;;;8.27;6.40;;;;;;;1.40;83.96;96560.00;5054262;28;20402;-70
2021/12/03 08:06:32;;;;;;;6.50;5.90;;;;;;;1.20;83.29;96559.69;5068541;28;20748;-70
2021/12/03 08:08:58;;;;;;;6.55;5.28;;;;;;;0.88;84.35;96558.19;5061660;28;20386;-69
2021/12/03 08:11:23;;;;;;;6.18;5.57;;;;;;;0.91;84.49;96559.59;5055555;28;20497;-70
2021/12/03 08:13:49;;;;;;;6.33;5.73;;;;;;;1.23;82.74;96560.16;5065474;28;20879;-70
2021/12/03 08:16:14;;;;;;;5.80;5.13;;;;;;;1.45;81.47;96565.47;5070032;28;20384;-70
2021/12/03 08:18:40;;;;;;;6.20;5.60;;;;;;;1.64;81.74;96570.94;5061079;28;20396;-70
2021/12/03 08:21:05;;;;;;;5.90;5.30;;;;;;;1.89;79.05;96558.59;5059030;28;20397;-70
2021/12/03 08:23:31;;;;;;;5.50;5.00;;;;;;;1.74;78.28;96560.34;5071109;28;20398;-70
2021/12/03 08:25:56;;;;;;;6.68;5.10;;;;;;;1.54;79.22;96567.81;5059310;28;20397;-70
2021/12/03 08:28:22;;;;;;;5.82;5.22;;;;;;;1.89;79.23;96563.75;5051621;28;20393;-69
2021/12/03 08:30:48;;;;;;;6.75;5.00;;;;;;;2.23;79.52;96562.41;5060381;28;20428;-69
2021/12/03 08:33:14;;;;;;;5.75;5.00;;;;;;;2.07;78.90;96560.78;5058889;28;20850;-69
2021/12/03 08:35:39;;;;;;;5.82;4.97;;;;;;;2.23;77.12;96562.41;5057799;28;20393;-69
2021/12/03 08:38:04;;;;;;;6.15;5.18;;;;;;;2.13;77.59;96560.06;5038842;28;20395;-70
2021/12/03 08:40:30;;;;;;;5.47;4.60;;;;;;;2.23;77.91;96557.25;5070346;28;20884;-70
2021/12/03 08:42:55;;;;;;;6.47;4.83;;;;;;;2.32;76.85;96556.94;5062452;28;20417;-69
2021/12/03 08:45:21;;;;;;;5.15;4.22;;;;;;;2.66;75.24;96555.56;5062111;28;20876;-70
2021/12/03 08:47:51;;;;;;;4.87;4.47;;;;;;;2.30;76.43;96556.31;5068895;28;20398;-69
2021/12/03 08:50:27;;;;;;;4.97;4.15;;;;;;;2.32;76.30;96549.19;5052409;28;21079;-69
2021/12/03 08:55:39;;;;;;;4.00;3.60;;;;;;;2.39;73.15;96549.28;5055586;28;20953;-69
2021/12/03 08:58:04;;;;;;;4.13;3.72;;;;;;;2.41;74.42;96549.88;5051301;28;20393;-69
2021/12/03 09:00:30;;;;;;;3.92;3.53;;;;;;;2.50;74.14;96552.19;5082939;28;20409;-69
2021/12/03 09:02:56;;;;;;;3.92;3.53;;;;;;;2.54;73.94;96559.59;5091223;28;20404;-69
2021/12/03 09:05:21;;;;;;;5.00;3.38;;;;;;;2.28;73.76;96566.06;5090912;28;20389;-70
2021/12/03 09:07:46;;;;;;;4.10;3.70;;;;;;;2.53;72.84;96555.38;5091003;28;20390;-69
2021/12/03 09:10:13;;;;;;;4.17;3.43;;;;;;;2.65;72.16;96569.47;5090445;28;20433;-69
2021/12/03 09:12:40;;;;;;;3.38;3.08;;;;;;;2.42;72.56;96560.06;5091552;28;20374;-69
2021/12/03 09:15:12;;;;;;;3.50;3.20;;;;;;;2.33;73.11;96568.09;5091401;28;20435;-69
2021/12/03 09:22:55;;;;;;;3.35;3.05;;;;;;;2.39;72.68;96565.59;5095681;28;20401;-69
2021/12/03 09:25:29;;;;;;;3.45;2.80;;;;;;;2.45;72.83;96562.25;5095220;28;20405;-69
2021/12/03 09:27:54;;;;;;;3.22;2.92;;;;;;;2.38;71.90;96564.00;5095619;28;20397;-69
2021/12/03 09:30:20;;;;;;;3.23;2.93;;;;;;;2.11;73.36;96569.00;5094915;28;20414;-69
2021/12/03 09:32:52;;;;;;;3.17;2.80;;;;;;;2.33;72.27;96566.31;5095396;28;20909;-69
2021/12/03 09:35:18;;;;;;;3.45;3.13;;;;;;;2.42;72.80;96565.22;5095073;28;20750;-69
2021/12/03 09:37:43;;;;;;;3.10;2.80;;;;;;;2.38;72.52;96563.19;5094837;28;20394;-69
2021/12/03 09:40:10;;;;;;;3.88;2.70;;;;;;;2.32;72.05;96566.50;5095039;28;20396;-69
2021/12/03 09:42:38;;;;;;;3.08;2.67;;;;;;;2.37;72.66;96577.09;5094933;28;20378;-70
2021/12/03 09:45:05;;;;;;;3.10;2.60;;;;;;;2.28;72.93;96562.66;5090590;28;20452;-70
2021/12/03 09:47:31;;;;;;;3.45;2.90;;;;;;;2.38;72.51;96569.16;5092944;28;20463;-70
2021/12/03 09:49:58;;;;;;;3.33;2.63;;;;;;;2.30;73.38;96571.03;5090640;28;20437;-70
2021/12/03 09:54:53;;;;;;;2.90;2.60;;;;;;;2.70;72.22;96556.78;5094184;28;20400;-69
2021/12/03 09:57:40;;;;;;;2.85;2.65;;;;;;;2.90;70.37;96558.56;5104521;28;20386;-69
2021/12/03 10:17:22;;;;;;;2.55;2.35;;;;;;;2.64;70.35;96552.34;5094611;28;20518;-69
2021/12/03 10:20:17;;;;;;;2.95;2.45;;;;;;;2.66;69.66;96543.41;5093415;28;20465;-70
2021/12/03 10:31:56;;;;;;;3.17;2.70;;;;;;;2.38;73.25;96542.50;5087044;28;20495;-70
2021/12/03 10:39:51;;;;;;;3.08;2.50;;;;;;;2.36;71.50;96524.56;5093499;28;20443;-70
2021/12/03 10:47:06;;;;;;;3.10;2.30;;;;;;;2.97;69.33;96525.00;5093664;28;20481;-70
2021/12/03 10:49:45;;;;;;;3.08;2.63;;;;;;;2.72;70.53;96532.34;5093135;28;20436;-69
2021/12/03 10:52:34;;;;;;;2.70;2.33;;;;;;;2.73;71.09;96528.75;5093813;28;20901;-69
2021/12/03 10:58:11;;;;;;;4.97;3.00;;;;;;;2.81;71.75;96531.22;5092172;28;20390;-70
2021/12/03 11:41:59;;;;;;;3.38;2.55;;;;;;;3.07;70.00;96470.31;5091775;28;20402;-69
2021/12/03 12:11:03;;;;;;;2.80;2.20;;;;;;;3.25;69.52;96447.34;5083782;28;20408;-70
2021/12/03 12:16:37;;;;;;;3.15;2.22;;;;;;;3.31;70.57;96446.59;5091445;28;20481;-69
2021/12/03 13:16:18;;;;;;;2.75;2.45;;;;;;;2.55;72.09;96388.69;5090399;28;20394;-69
2021/12/03 14:05:12;;;;;;;2.53;2.20;;;;;;;3.15;70.25;96374.41;5092523;28;20393;-69
2021/12/03 14:40:17;;;;;;;4.20;2.50;;;;;;;3.00;71.26;96343.44;5094072;28;20484;-69
2021/12/03 14:55:57;;;;;;;2.60;2.40;;;;;;;2.64;72.47;96324.69;5093988;28;20409;-68
2021/12/03 14:58:31;;;;;;;3.58;2.28;;;;;;;2.64;72.85;96324.69;5093250;28;20396;-69
2021/12/03 15:01:02;;;;;;;2.67;2.00;;;;;;;2.56;73.29;96330.00;5093051;28;20493;-69
2021/12/03 15:03:47;;;;;;;2.80;2.30;;;;;;;2.81;71.93;96331.16;5093074;28;20428;-69
2021/12/03 15:06:35;;;;;;;3.50;2.13;;;;;;;2.65;72.23;96332.25;5093368;28;20394;-69
2021/12/03 15:09:11;;;;;;;3.53;2.40;;;;;;;2.49;72.74;96330.75;5090451;28;20464;-68
2021/12/03 15:20:11;;;;;;;6.95;4.32;;;;;;;2.25;74.16;96327.75;5082586;28;20397;-69
2021/12/03 15:25:13;;;;;;;2.67;2.03;;;;;;;2.21;74.50;96326.53;5092035;28;20870;-68
2021/12/03 15:35:43;;;;;;;2.33;2.03;;;;;;;2.18;75.25;96321.72;5093218;28;20745;-69
2021/12/03 15:38:39;;;;;;;2.90;2.38;;;;;;;2.12;75.36;96320.66;5078138;28;20443;-69
2021/12/03 16:23:38;;;;;;;2.30;2.10;;;;;;;2.45;73.22;96295.13;5092117;28;20409;-69
2021/12/03 16:26:30;;;;;;;3.23;2.13;;;;;;;2.12;73.77;96281.91;5098049;28;20536;-69
2021/12/03 16:53:37;;;;;;;2.03;1.80;;;;;;;2.28;71.68;96265.34;5090876;28;20493;-69
2021/12/03 16:58:33;;;;;;;2.47;2.00;;;;;;;2.25;71.73;96270.88;5091624;28;20390;-68
2021/12/03 17:01:07;;;;;;;2.22;1.80;;;;;;;2.15;71.68;96270.41;5090695;28;20421;-69
2021/12/03 17:57:26;;;;;;;7.90;4.10;;;;;;;2.20;70.36;96199.06;5094130;28;20753;-69
2021/12/03 17:59:52;;;;;;;8.35;4.13;;;;;;;2.07;70.87;96202.34;5093835;28;20445;-68
2021/12/03 18:05:21;;;;;;;7.32;4.35;;;;;;;2.13;70.27;96176.72;5094911;28;20404;-69
2021/12/03 18:08:04;;;;;;;9.15;4.68;;;;;;;2.21;70.12;96174.81;5094442;28;20390;-69
2021/12/03 18:58:47;;;;;;;3.87;2.90;;;;;;;2.10;68.28;96108.13;5093097;28;20938;-69
2021/12/03 19:01:13;;;;;;;3.95;3.10;;;;;;;2.25;67.68;96103.63;5093308;28;20401;-68
2021/12/03 19:06:30;;;;;;;3.80;3.08;;;;;;;2.35;67.58;96104.06;5094162;28;20456;-68
2021/12/03 19:08:59;;;;;;;5.80;2.97;;;;;;;2.27;67.86;96100.88;5093423;28;20874;-69
2021/12/03 19:11:34;;;;;;;3.92;2.97;;;;;;;2.17;69.06;96105.59;5093671;28;20414;-68
2021/12/03 19:13:59;;;;;;;3.90;2.97;;;;;;;2.36;67.67;96112.63;5093766;28;20479;-69
2021/12/03 19:16:26;;;;;;;7.20;3.42;;;;;;;2.45;67.37;96108.91;5093726;28;20418;-69
2021/12/03 19:18:55;;;;;;;3.95;3.13;;;;;;;2.15;68.21;96098.03;5093000;28;20394;-68
2021/12/03 19:21:24;;;;;;;3.90;3.20;;;;;;;2.22;67.22;96085.94;5093720;28;20450;-70
2021/12/03 19:23:52;;;;;;;4.45;3.10;;;;;;;2.24;68.07;96083.94;5093367;28;20405;-67
2021/12/03 19:26:20;;;;;;;4.50;3.17;;;;;;;2.33;66.83;96066.50;5093697;28;20401;-68
2021/12/03 19:28:47;;;;;;;3.45;2.90;;;;;;;2.38;67.08;96057.16;5093002;28;20787;-68